createdAt,value
2017-04-20T00:00:21.606Z,0
2017-04-20T00:01:21.579Z,0
2017-04-20T00:02:21.556Z,0
2017-04-20T00:03:21.526Z,0
2017-04-20T00:04:21.514Z,0
2017-04-20T00:05:24.566Z,0
2017-04-20T00:06:21.449Z,0
2017-04-20T00:07:21.427Z,0
2017-04-20T00:08:21.401Z,0
2017-04-20T00:09:21.384Z,0
2017-04-20T00:10:21.342Z,0
2017-04-20T00:11:21.317Z,0
2017-04-20T00:12:21.295Z,0
2017-04-20T00:13:21.295Z,0
2017-04-20T00:14:21.793Z,0
2017-04-20T00:15:33.688Z,0
2017-04-20T00:16:21.181Z,0
2017-04-20T00:17:21.153Z,0
2017-04-20T00:18:21.129Z,0
2017-04-20T00:19:21.104Z,0
2017-04-20T00:20:21.133Z,0
2017-04-20T00:21:20.987Z,0
2017-04-20T00:22:21.031Z,0
2017-04-20T00:23:21.007Z,0
2017-04-20T00:24:20.976Z,0
2017-04-20T00:25:20.952Z,0
2017-04-20T00:26:20.919Z,0
2017-04-20T00:27:20.895Z,0
2017-04-20T00:28:20.866Z,0
2017-04-20T00:29:20.543Z,0
2017-04-20T00:30:20.558Z,0
2017-04-20T00:31:20.790Z,0
2017-04-20T00:32:21.280Z,0
2017-04-20T00:33:20.731Z,0
2017-04-20T00:34:20.412Z,0
2017-04-20T00:35:20.679Z,0
2017-04-20T00:36:20.657Z,0
2017-04-20T00:37:20.633Z,0
2017-04-20T00:38:20.606Z,0
2017-04-20T00:39:20.524Z,0
2017-04-20T00:40:20.547Z,0
2017-04-20T00:41:20.516Z,0
2017-04-20T00:42:20.499Z,0
2017-04-20T00:43:20.476Z,0
2017-04-20T00:44:20.443Z,0
2017-04-20T00:45:20.417Z,0
2017-04-20T00:46:20.388Z,0
2017-04-20T00:47:20.355Z,0
2017-04-20T00:48:20.332Z,0
2017-04-20T00:49:20.317Z,0
2017-04-20T00:50:20.335Z,0
2017-04-20T00:51:19.958Z,0
2017-04-20T00:52:20.237Z,0
2017-04-20T00:53:20.203Z,0
2017-04-20T00:54:20.176Z,0
2017-04-20T00:55:20.151Z,0
2017-04-20T00:56:19.824Z,0
2017-04-20T00:57:20.100Z,0
2017-04-20T00:58:19.773Z,0
2017-04-20T00:59:20.096Z,0
2017-04-20T01:00:20.032Z,0
2017-04-20T01:01:20.008Z,0
2017-04-20T01:02:19.970Z,0
2017-04-20T01:03:19.990Z,0
2017-04-20T01:04:21.118Z,0
2017-04-20T01:05:19.889Z,0
2017-04-20T01:06:19.908Z,0
2017-04-20T01:07:19.836Z,0
2017-04-20T01:08:19.503Z,0
2017-04-20T01:09:19.794Z,0
2017-04-20T01:10:19.757Z,0
2017-04-20T01:11:19.729Z,0
2017-04-20T01:12:19.700Z,0
2017-04-20T01:13:19.376Z,0
2017-04-20T01:14:19.648Z,0
2017-04-20T01:15:19.619Z,0
2017-04-20T01:16:19.596Z,0
2017-04-20T01:17:19.568Z,0
2017-04-20T01:18:19.549Z,0
2017-04-20T01:19:19.519Z,0
2017-04-20T01:20:19.492Z,0
2017-04-20T01:21:19.463Z,0
2017-04-20T01:22:19.688Z,0
2017-04-20T01:23:19.413Z,0
2017-04-20T01:24:19.405Z,0
2017-04-20T01:25:19.366Z,0
2017-04-20T01:26:19.345Z,0
2017-04-20T01:27:19.306Z,0
2017-04-20T01:28:19.280Z,0
2017-04-20T01:29:19.246Z,0
2017-04-20T01:30:18.922Z,0
2017-04-20T01:31:18.896Z,0
2017-04-20T01:32:18.880Z,0
2017-04-20T01:34:04.380Z,0
2017-04-20T01:34:19.118Z,0
2017-04-20T01:35:19.094Z,0
2017-04-20T01:36:19.067Z,0
2017-04-20T01:37:18.738Z,0
2017-04-20T01:38:19.013Z,0
2017-04-20T01:39:18.987Z,0
2017-04-20T01:40:18.963Z,0
2017-04-20T01:41:18.936Z,0
2017-04-20T01:42:18.953Z,0
2017-04-20T01:43:18.876Z,0
2017-04-20T01:44:18.858Z,0
2017-04-20T01:45:18.836Z,0
2017-04-20T01:46:18.799Z,0
2017-04-20T01:47:18.772Z,0
2017-04-20T01:48:20.153Z,0
2017-04-20T01:49:18.736Z,0
2017-04-20T01:50:18.692Z,0
2017-04-20T01:51:18.685Z,0
2017-04-20T01:52:18.643Z,0
2017-04-20T01:53:18.621Z,0
2017-04-20T01:54:18.589Z,0
2017-04-20T01:55:18.560Z,0
2017-04-20T01:56:18.539Z,0
2017-04-20T01:57:18.516Z,0
2017-04-20T01:58:18.181Z,0
2017-04-20T01:59:18.459Z,0
2017-04-20T02:00:18.433Z,0
2017-04-20T02:01:18.405Z,0
2017-04-20T02:02:18.383Z,0
2017-04-20T02:03:18.354Z,0
2017-04-20T02:04:18.020Z,0
2017-04-20T02:05:17.990Z,0
2017-04-20T02:06:18.263Z,0
2017-04-20T02:07:17.933Z,0
2017-04-20T02:08:17.931Z,0
2017-04-20T02:09:18.242Z,0
2017-04-20T02:10:18.165Z,0
2017-04-20T02:11:18.176Z,0
2017-04-20T02:12:18.101Z,0
2017-04-20T02:13:18.091Z,0
2017-04-20T02:14:18.071Z,0
2017-04-20T02:15:18.024Z,0
2017-04-20T02:16:17.996Z,0
2017-04-20T02:17:18.186Z,0
2017-04-20T02:18:17.647Z,0
2017-04-20T02:19:18.016Z,0
2017-04-20T02:20:17.889Z,0
2017-04-20T02:21:17.864Z,0
2017-04-20T02:22:17.839Z,0
2017-04-20T02:23:17.820Z,0
2017-04-20T02:24:18.529Z,0
2017-04-20T02:25:17.857Z,0
2017-04-20T02:26:17.732Z,0
2017-04-20T02:27:17.397Z,0
2017-04-20T02:28:17.726Z,0
2017-04-20T02:29:17.654Z,0
2017-04-20T02:30:17.612Z,0
2017-04-20T02:31:17.620Z,0
2017-04-20T02:32:17.566Z,0
2017-04-20T02:33:17.536Z,0
2017-04-20T02:34:17.523Z,0
2017-04-20T02:35:17.482Z,0
2017-04-20T02:36:17.455Z,0
2017-04-20T02:37:17.421Z,0
2017-04-20T02:38:17.454Z,0
2017-04-20T02:39:17.385Z,0
2017-04-20T02:40:17.343Z,0
2017-04-20T02:41:17.052Z,0
2017-04-20T02:42:17.296Z,0
2017-04-20T02:43:16.962Z,0
2017-04-20T02:44:17.242Z,0
2017-04-20T02:45:17.217Z,0
2017-04-20T02:46:17.178Z,0
2017-04-20T02:47:17.905Z,0
2017-04-20T02:48:17.132Z,0
2017-04-20T02:49:17.151Z,0
2017-04-20T02:50:17.073Z,0
2017-04-20T02:51:17.046Z,0
2017-04-20T02:52:17.018Z,0
2017-04-20T02:53:16.995Z,0
2017-04-20T02:54:16.972Z,0
2017-04-20T02:55:16.937Z,0
2017-04-20T02:56:16.910Z,0
2017-04-20T02:57:16.885Z,0
2017-04-20T02:58:16.860Z,0
2017-04-20T02:59:16.844Z,0
2017-04-20T03:00:17.097Z,0
2017-04-20T03:01:16.772Z,0
2017-04-20T03:02:16.745Z,0
2017-04-20T03:03:16.768Z,0
2017-04-20T03:04:16.692Z,0
2017-04-20T03:05:16.673Z,0
2017-04-20T03:06:16.638Z,0
2017-04-20T03:07:16.610Z,0
2017-04-20T03:08:16.583Z,0
2017-04-20T03:09:18.163Z,0
2017-04-20T03:10:16.528Z,0
2017-04-20T03:11:16.956Z,0
2017-04-20T03:12:16.173Z,0
2017-04-20T03:13:16.451Z,0
2017-04-20T03:14:16.424Z,0
2017-04-20T03:15:16.395Z,0
2017-04-20T03:16:16.370Z,0
2017-04-20T03:17:16.034Z,0
2017-04-20T03:18:16.309Z,0
2017-04-20T03:19:16.634Z,0
2017-04-20T03:20:16.259Z,0
2017-04-20T03:21:15.927Z,0
2017-04-20T03:22:16.200Z,0
2017-04-20T03:23:16.174Z,0
2017-04-20T03:24:16.906Z,0
2017-04-20T03:25:15.835Z,0
2017-04-20T03:26:16.271Z,0
2017-04-20T03:27:16.065Z,0
2017-04-20T03:28:17.141Z,0
2017-04-20T03:29:16.008Z,0
2017-04-20T03:30:15.680Z,0
2017-04-20T03:31:15.954Z,0
2017-04-20T03:32:15.928Z,0
2017-04-20T03:33:15.901Z,0
2017-04-20T03:34:17.204Z,0
2017-04-20T03:35:15.834Z,0
2017-04-20T03:36:15.830Z,0
2017-04-20T03:37:15.786Z,0
2017-04-20T03:38:15.889Z,0
2017-04-20T03:39:15.435Z,0
2017-04-20T03:40:15.418Z,0
2017-04-20T03:41:15.680Z,0
2017-04-20T03:42:15.698Z,0
2017-04-20T03:43:15.629Z,0
2017-04-20T03:44:15.592Z,0
2017-04-20T03:45:15.566Z,0
2017-04-20T03:46:15.539Z,0
2017-04-20T03:47:15.516Z,4
2017-04-20T03:48:15.480Z,4
2017-04-20T03:49:15.460Z,0
2017-04-20T03:50:15.435Z,0
2017-04-20T03:51:15.397Z,4
2017-04-20T03:52:15.382Z,4
2017-04-20T03:53:15.498Z,4
2017-04-20T03:54:15.076Z,4
2017-04-20T03:55:15.290Z,4
2017-04-20T03:56:15.271Z,4
2017-04-20T03:57:15.248Z,8
2017-04-20T03:58:15.208Z,12
2017-04-20T03:59:15.181Z,8
2017-04-20T04:00:15.212Z,12
2017-04-20T04:01:15.121Z,12
2017-04-20T04:02:15.106Z,16
2017-04-20T04:03:15.075Z,16
2017-04-20T04:04:15.049Z,20
2017-04-20T04:05:15.020Z,24
2017-04-20T04:06:14.697Z,28
2017-04-20T04:07:14.968Z,32
2017-04-20T04:08:14.638Z,40
2017-04-20T04:09:14.626Z,44
2017-04-20T04:10:14.872Z,48
2017-04-20T04:11:14.553Z,60
2017-04-20T04:12:14.823Z,64
2017-04-20T04:13:14.795Z,72
2017-04-20T04:14:14.780Z,80
2017-04-20T04:15:16.293Z,92
2017-04-20T04:16:14.707Z,108
2017-04-20T04:17:14.685Z,124
2017-04-20T04:18:14.656Z,136
2017-04-20T04:19:14.625Z,152
2017-04-20T04:20:14.642Z,168
2017-04-20T04:21:14.570Z,180
2017-04-20T04:22:14.768Z,200
2017-04-20T04:23:14.221Z,220
2017-04-20T04:24:14.590Z,240
2017-04-20T04:25:14.465Z,264
2017-04-20T04:26:14.479Z,292
2017-04-20T04:27:14.402Z,320
2017-04-20T04:28:14.829Z,348
2017-04-20T04:29:14.353Z,376
2017-04-20T04:30:14.321Z,412
2017-04-20T04:31:14.304Z,444
2017-04-20T04:32:14.289Z,480
2017-04-20T04:33:16.146Z,512
2017-04-20T04:34:13.965Z,548
2017-04-20T04:35:14.192Z,592
2017-04-20T04:36:14.158Z,636
2017-04-20T04:37:14.149Z,684
2017-04-20T04:38:13.811Z,736
2017-04-20T04:39:14.081Z,784
2017-04-20T04:40:14.043Z,828
2017-04-20T04:41:14.065Z,876
2017-04-20T04:42:13.997Z,924
2017-04-20T04:43:13.961Z,988
2017-04-20T04:44:13.939Z,1064
2017-04-20T04:45:13.908Z,1128
2017-04-20T04:46:13.882Z,1168
2017-04-20T04:47:13.850Z,1204
2017-04-20T04:48:13.533Z,1252
2017-04-20T04:49:13.798Z,1300
2017-04-20T04:50:13.816Z,1308
2017-04-20T04:51:13.742Z,1320
2017-04-20T04:52:13.720Z,1400
2017-04-20T04:53:13.696Z,1532
2017-04-20T04:54:13.715Z,1680
2017-04-20T04:55:13.642Z,1836
2017-04-20T04:56:13.622Z,1992
2017-04-20T04:57:13.583Z,2072
2017-04-20T04:58:13.564Z,1872
2017-04-20T04:59:13.246Z,1936
2017-04-20T05:00:13.514Z,2240
2017-04-20T05:01:13.486Z,2444
2017-04-20T05:02:13.465Z,2604
2017-04-20T05:03:13.440Z,2780
2017-04-20T05:04:13.399Z,2960
2017-04-20T05:05:13.380Z,3136
2017-04-20T05:06:13.349Z,3324
2017-04-20T05:07:13.316Z,3508
2017-04-20T05:08:13.305Z,3692
2017-04-20T05:09:13.265Z,3868
2017-04-20T05:10:13.242Z,4004
2017-04-20T05:11:13.215Z,4140
2017-04-20T05:12:13.740Z,4280
2017-04-20T05:13:12.867Z,4440
2017-04-20T05:14:13.148Z,4624
2017-04-20T05:15:13.106Z,4808
2017-04-20T05:16:13.088Z,4904
2017-04-20T05:17:13.214Z,5012
2017-04-20T05:18:13.045Z,5180
2017-04-20T05:19:13.016Z,5332
2017-04-20T05:20:12.689Z,5476
2017-04-20T05:21:12.963Z,5564
2017-04-20T05:22:12.944Z,5572
2017-04-20T05:23:12.916Z,5172
2017-04-20T05:24:12.894Z,5672
2017-04-20T05:25:12.914Z,5540
2017-04-20T05:26:12.852Z,6028
2017-04-20T05:27:12.823Z,6172
2017-04-20T05:28:12.799Z,6248
2017-04-20T05:29:12.482Z,6344
2017-04-20T05:30:12.442Z,6636
2017-04-20T05:31:12.723Z,6900
2017-04-20T05:32:12.699Z,7036
2017-04-20T05:33:12.917Z,7076
2017-04-20T05:34:12.895Z,7144
2017-04-20T05:35:12.633Z,7292
2017-04-20T05:36:12.610Z,7536
2017-04-20T05:37:12.585Z,7764
2017-04-20T05:38:12.567Z,7116
2017-04-20T05:39:12.536Z,8000
2017-04-20T05:40:12.528Z,8568
2017-04-20T05:41:12.496Z,8744
2017-04-20T05:42:12.470Z,8808
2017-04-20T05:43:12.489Z,8892
2017-04-20T05:44:12.411Z,8964
2017-04-20T05:45:12.397Z,9068
2017-04-20T05:46:12.370Z,9204
2017-04-20T05:47:12.349Z,9300
2017-04-20T05:48:12.323Z,9324
2017-04-20T05:49:12.299Z,9472
2017-04-20T05:50:12.279Z,9676
2017-04-20T05:51:11.976Z,9756
2017-04-20T05:52:12.233Z,9904
2017-04-20T05:53:12.209Z,10088
2017-04-20T05:54:12.184Z,10320
2017-04-20T05:55:11.875Z,10604
2017-04-20T05:56:12.209Z,10612
2017-04-20T05:57:11.875Z,10520
2017-04-20T05:58:12.093Z,10784
2017-04-20T05:59:12.202Z,10744
2017-04-20T06:00:12.065Z,10948
2017-04-20T06:01:12.082Z,10420
2017-04-20T06:02:12.010Z,11140
2017-04-20T06:03:11.987Z,11812
2017-04-20T06:04:11.967Z,12112
2017-04-20T06:05:11.950Z,12268
2017-04-20T06:06:11.922Z,12468
2017-04-20T06:07:11.951Z,12640
2017-04-20T06:08:11.877Z,13056
2017-04-20T06:09:11.559Z,13120
2017-04-20T06:10:11.552Z,13376
2017-04-20T06:11:11.516Z,13664
2017-04-20T06:12:11.794Z,12660
2017-04-20T06:13:11.769Z,13376
2017-04-20T06:14:11.753Z,13536
2017-04-20T06:15:11.468Z,12312
2017-04-20T06:16:11.452Z,13408
2017-04-20T06:17:11.690Z,13984
2017-04-20T06:18:11.674Z,13152
2017-04-20T06:19:11.651Z,14432
2017-04-20T06:20:11.322Z,14528
2017-04-20T06:21:11.365Z,14720
2017-04-20T06:22:11.587Z,14880
2017-04-20T06:23:11.565Z,14784
2017-04-20T06:24:11.821Z,14272
2017-04-20T06:25:11.525Z,14304
2017-04-20T06:26:13.202Z,14592
2017-04-20T06:27:11.485Z,14976
2017-04-20T06:28:11.458Z,15104
2017-04-20T06:29:11.443Z,14272
2017-04-20T06:30:11.420Z,15232
2017-04-20T06:31:11.399Z,15648
2017-04-20T06:32:11.722Z,16032
2017-04-20T06:33:11.074Z,16064
2017-04-20T06:34:11.339Z,16352
2017-04-20T06:35:11.348Z,17056
2017-04-20T06:36:11.308Z,17824
2017-04-20T06:37:11.282Z,18368
2017-04-20T06:38:11.257Z,18464
2017-04-20T06:39:10.936Z,18112
2017-04-20T06:40:11.228Z,17760
2017-04-20T06:41:11.221Z,17376
2017-04-20T06:42:11.195Z,17312
2017-04-20T06:43:11.163Z,17824
2017-04-20T06:44:11.135Z,18848
2017-04-20T06:45:10.825Z,19456
2017-04-20T06:46:11.101Z,18400
2017-04-20T06:47:10.780Z,16736
2017-04-20T06:48:11.096Z,16672
2017-04-20T06:49:11.047Z,16544
2017-04-20T06:50:11.023Z,18208
2017-04-20T06:51:11.109Z,20384
2017-04-20T06:52:10.998Z,20608
2017-04-20T06:53:10.973Z,21216
2017-04-20T06:54:10.956Z,20992
2017-04-20T06:55:10.932Z,20768
2017-04-20T06:56:10.921Z,19648
2017-04-20T06:57:10.597Z,19200
2017-04-20T06:58:10.879Z,20352
2017-04-20T06:59:11.121Z,21152
2017-04-20T07:00:10.838Z,21408
2017-04-20T07:01:10.824Z,21120
2017-04-20T07:02:10.508Z,21056
2017-04-20T07:03:10.786Z,21664
2017-04-20T07:04:10.773Z,19200
2017-04-20T07:05:10.772Z,17760
2017-04-20T07:06:10.435Z,20256
2017-04-20T07:07:10.407Z,20384
2017-04-20T07:08:10.694Z,21056
2017-04-20T07:09:10.683Z,26304
2017-04-20T07:10:10.668Z,26336
2017-04-20T07:11:10.359Z,25728
2017-04-20T07:12:10.640Z,25184
2017-04-20T07:13:10.440Z,25344
2017-04-20T07:14:10.605Z,24832
2017-04-20T07:15:10.586Z,22880
2017-04-20T07:16:10.571Z,24576
2017-04-20T07:17:10.252Z,24640
2017-04-20T07:18:10.530Z,24416
2017-04-20T07:19:10.511Z,24768
2017-04-20T07:20:10.495Z,23040
2017-04-20T07:21:10.489Z,22272
2017-04-20T07:22:10.466Z,22976
2017-04-20T07:23:10.448Z,21472
2017-04-20T07:24:10.431Z,21408
2017-04-20T07:25:10.414Z,23168
2017-04-20T07:26:10.392Z,24928
2017-04-20T07:27:10.383Z,26880
2017-04-20T07:28:10.362Z,26176
2017-04-20T07:29:10.344Z,23968
2017-04-20T07:30:10.344Z,23264
2017-04-20T07:31:10.314Z,23136
2017-04-20T07:32:10.299Z,21536
2017-04-20T07:33:10.286Z,24096
2017-04-20T07:34:10.271Z,25984
2017-04-20T07:35:10.255Z,28128
2017-04-20T07:36:09.940Z,28640
2017-04-20T07:37:10.223Z,29696
2017-04-20T07:38:10.210Z,29056
2017-04-20T07:39:10.190Z,20512
2017-04-20T07:40:10.170Z,27008
2017-04-20T07:41:10.154Z,26496
2017-04-20T07:42:09.860Z,25888
2017-04-20T07:43:10.128Z,23392
2017-04-20T07:44:10.118Z,22560
2017-04-20T07:45:10.117Z,25504
2017-04-20T07:46:10.232Z,26464
2017-04-20T07:47:10.070Z,27776
2017-04-20T07:48:10.069Z,29088
2017-04-20T07:49:10.038Z,26720
2017-04-20T07:50:09.725Z,25920
2017-04-20T07:51:10.006Z,27872
2017-04-20T07:52:09.991Z,25568
2017-04-20T07:53:10.981Z,30912
2017-04-20T07:54:09.969Z,32096
2017-04-20T07:55:09.646Z,31616
2017-04-20T07:56:09.994Z,31072
2017-04-20T07:57:09.915Z,32000
2017-04-20T07:58:09.906Z,32928
2017-04-20T07:59:10.588Z,33920
2017-04-20T08:00:09.572Z,34592
2017-04-20T08:01:09.867Z,34240
2017-04-20T08:02:09.546Z,28416
2017-04-20T08:03:09.837Z,32736
2017-04-20T08:04:09.825Z,31968
2017-04-20T08:05:09.505Z,33536
2017-04-20T08:06:09.795Z,34784
2017-04-20T08:07:09.472Z,32448
2017-04-20T08:08:09.813Z,37024
2017-04-20T08:09:09.760Z,37888
2017-04-20T08:10:09.737Z,39776
2017-04-20T08:11:09.717Z,40544
2017-04-20T08:12:09.699Z,36480
2017-04-20T08:13:09.377Z,34176
2017-04-20T08:14:09.680Z,32576
2017-04-20T08:15:09.714Z,22752
2017-04-20T08:16:09.645Z,32608
2017-04-20T08:17:09.634Z,34624
2017-04-20T08:18:09.617Z,37376
2017-04-20T08:19:09.900Z,39648
2017-04-20T08:20:09.590Z,43488
2017-04-20T08:21:09.580Z,43328
2017-04-20T08:22:09.557Z,45280
2017-04-20T08:23:09.537Z,37504
2017-04-20T08:24:09.229Z,38688
2017-04-20T08:25:09.561Z,36224
2017-04-20T08:26:09.501Z,35904
2017-04-20T08:27:09.488Z,38912
2017-04-20T08:28:09.552Z,40320
2017-04-20T08:29:09.578Z,40768
2017-04-20T08:30:09.438Z,40992
2017-04-20T08:31:09.474Z,35424
2017-04-20T08:32:09.408Z,35360
2017-04-20T08:33:09.437Z,35264
2017-04-20T08:34:09.382Z,35232
2017-04-20T08:35:09.567Z,34784
2017-04-20T08:36:09.381Z,32864
2017-04-20T08:37:09.034Z,32832
2017-04-20T08:38:09.323Z,32512
2017-04-20T08:39:08.708Z,33792
2017-04-20T08:40:09.350Z,36800
2017-04-20T08:41:09.295Z,38560
2017-04-20T08:42:09.258Z,38816
2017-04-20T08:43:09.250Z,39648
2017-04-20T08:44:09.245Z,37120
2017-04-20T08:45:09.220Z,36992
2017-04-20T08:46:09.207Z,35744
2017-04-20T08:47:08.883Z,33184
2017-04-20T08:48:09.186Z,39584
2017-04-20T08:49:09.171Z,45280
2017-04-20T08:50:09.148Z,47712
2017-04-20T08:51:09.139Z,49984
2017-04-20T08:52:09.113Z,50624
2017-04-20T08:53:10.018Z,53824
2017-04-20T08:54:09.162Z,46496
2017-04-20T08:55:09.085Z,40544
2017-04-20T08:56:09.057Z,40384
2017-04-20T08:57:09.046Z,40160
2017-04-20T08:58:08.722Z,40256
2017-04-20T08:59:08.732Z,42944
2017-04-20T09:00:09.002Z,46016
2017-04-20T09:01:09.020Z,43584
2017-04-20T09:02:09.011Z,44704
2017-04-20T09:03:08.672Z,44384
2017-04-20T09:04:08.979Z,44768
2017-04-20T09:05:09.632Z,44192
2017-04-20T09:06:08.923Z,42400
2017-04-20T09:07:08.948Z,40480
2017-04-20T09:08:08.894Z,44032
2017-04-20T09:09:08.879Z,46464
2017-04-20T09:10:08.876Z,48928
2017-04-20T09:11:08.841Z,53856
2017-04-20T09:13:08.848Z,53728
2017-04-20T09:14:08.493Z,56768
2017-04-20T09:15:08.795Z,53952
2017-04-20T09:16:08.184Z,47200
2017-04-20T09:17:08.457Z,46720
2017-04-20T09:18:08.744Z,41216
2017-04-20T09:19:08.731Z,37568
2017-04-20T09:20:08.706Z,36384
2017-04-20T09:21:09.006Z,34784
2017-04-20T09:22:08.706Z,37344
2017-04-20T09:23:08.679Z,41536
2017-04-20T09:24:08.674Z,44928
2017-04-20T09:25:08.343Z,45664
2017-04-20T09:26:08.885Z,49600
2017-04-20T09:27:09.058Z,47840
2017-04-20T09:28:08.306Z,45472
2017-04-20T09:29:08.595Z,43968
2017-04-20T09:30:08.584Z,41856
2017-04-20T09:31:08.564Z,36832
2017-04-20T09:32:08.541Z,36832
2017-04-20T09:33:08.540Z,36768
2017-04-20T09:34:08.530Z,38976
2017-04-20T09:35:08.502Z,38432
2017-04-20T09:36:08.187Z,39040
2017-04-20T09:37:08.487Z,39872
2017-04-20T09:38:08.474Z,42400
2017-04-20T09:39:08.434Z,44896
2017-04-20T09:40:08.426Z,44064
2017-04-20T09:41:08.408Z,43904
2017-04-20T09:42:08.393Z,45376
2017-04-20T09:43:08.385Z,49056
2017-04-20T09:44:08.132Z,51008
2017-04-20T09:45:08.066Z,51200
2017-04-20T09:46:08.370Z,49376
2017-04-20T09:47:08.333Z,50304
2017-04-20T09:48:08.334Z,47936
2017-04-20T09:49:08.310Z,47904
2017-04-20T09:50:08.297Z,48448
2017-04-20T09:51:08.276Z,49440
2017-04-20T09:52:08.258Z,48896
2017-04-20T09:53:08.437Z,52448
2017-04-20T09:54:08.232Z,53376
2017-04-20T09:55:07.911Z,56032
2017-04-20T09:56:07.900Z,50688
2017-04-20T09:57:08.197Z,26208
2017-04-20T09:58:08.187Z,23808
2017-04-20T09:59:07.855Z,19520
2017-04-20T10:00:08.138Z,41184
2017-04-20T10:01:08.130Z,22848
2017-04-20T10:02:08.116Z,27904
2017-04-20T10:03:08.100Z,21472
2017-04-20T10:04:08.075Z,18240
2017-04-20T10:05:08.074Z,21984
2017-04-20T10:06:07.812Z,31456
2017-04-20T10:07:08.036Z,22272
2017-04-20T10:08:08.027Z,25312
2017-04-20T10:09:07.696Z,34880
2017-04-20T10:10:07.703Z,50784
2017-04-20T10:11:07.961Z,49664
2017-04-20T10:12:07.943Z,53472
2017-04-20T10:13:07.931Z,54112
2017-04-20T10:14:07.604Z,52736
2017-04-20T10:15:07.909Z,50368
2017-04-20T10:16:07.894Z,50496
2017-04-20T10:17:08.063Z,49824
2017-04-20T10:18:07.839Z,47552
2017-04-20T10:19:07.828Z,45824
2017-04-20T10:20:07.826Z,45312
2017-04-20T10:21:07.793Z,44544
2017-04-20T10:22:07.484Z,45120
2017-04-20T10:23:07.788Z,47456
2017-04-20T10:24:07.755Z,49536
2017-04-20T10:25:07.810Z,53280
2017-04-20T10:26:07.703Z,51488
2017-04-20T10:27:07.414Z,51808
2017-04-20T10:28:07.477Z,53344
2017-04-20T10:29:07.675Z,54176
2017-04-20T10:30:07.651Z,49984
2017-04-20T10:31:07.637Z,30624
2017-04-20T10:32:07.626Z,14548
2017-04-20T10:33:07.611Z,13540
2017-04-20T10:34:07.664Z,13576
2017-04-20T10:35:07.575Z,13272
2017-04-20T10:36:07.563Z,12924
2017-04-20T10:37:07.540Z,12720
2017-04-20T10:38:07.214Z,12544
2017-04-20T10:39:07.506Z,12472
2017-04-20T10:40:07.493Z,12476
2017-04-20T10:41:07.770Z,12420
2017-04-20T10:42:07.232Z,12424
2017-04-20T10:43:07.429Z,12504
2017-04-20T10:44:07.173Z,12644
2017-04-20T10:45:07.393Z,12116
2017-04-20T10:46:07.383Z,12024
2017-04-20T10:47:07.361Z,12928
2017-04-20T10:48:07.638Z,13092
2017-04-20T10:49:07.342Z,12912
2017-04-20T10:50:07.963Z,12664
2017-04-20T10:51:07.277Z,12468
2017-04-20T10:52:06.961Z,12156
2017-04-20T10:53:07.258Z,12728
2017-04-20T10:54:07.216Z,13424
2017-04-20T10:55:07.245Z,12688
2017-04-20T10:56:07.239Z,13068
2017-04-20T10:57:06.857Z,12840
2017-04-20T10:58:07.139Z,12412
2017-04-20T10:59:07.121Z,12116
2017-04-20T11:00:09.196Z,11200
2017-04-20T11:01:07.076Z,11732
2017-04-20T11:02:07.060Z,12304
2017-04-20T11:03:07.050Z,12016
2017-04-20T11:04:07.020Z,11820
2017-04-20T11:05:06.704Z,11756
2017-04-20T11:06:06.978Z,11752
2017-04-20T11:07:07.156Z,11680
2017-04-20T11:08:06.946Z,11648
2017-04-20T11:09:06.958Z,10484
2017-04-20T11:10:06.899Z,11008
2017-04-20T11:11:06.881Z,10624
2017-04-20T11:12:06.856Z,10652
2017-04-20T11:13:06.843Z,10380
2017-04-20T11:14:06.514Z,10128
2017-04-20T11:15:06.795Z,9992
2017-04-20T11:16:06.772Z,9760
2017-04-20T11:17:06.797Z,9508
2017-04-20T11:18:06.731Z,9300
2017-04-20T11:19:06.706Z,9160
2017-04-20T11:20:06.685Z,8964
2017-04-20T11:21:06.664Z,8808
2017-04-20T11:22:06.647Z,8688
2017-04-20T11:23:06.317Z,8528
2017-04-20T11:24:06.603Z,8360
2017-04-20T11:25:06.579Z,8180
2017-04-20T11:26:06.572Z,8128
2017-04-20T11:27:06.535Z,8084
2017-04-20T11:28:06.571Z,8020
2017-04-20T11:29:06.496Z,7928
2017-04-20T11:30:06.475Z,7832
2017-04-20T11:31:06.194Z,7692
2017-04-20T11:32:06.774Z,7588
2017-04-20T11:33:06.428Z,7484
2017-04-20T11:34:06.142Z,7404
2017-04-20T11:35:06.376Z,7348
2017-04-20T11:36:06.060Z,7228
2017-04-20T11:37:06.334Z,7184
2017-04-20T11:38:06.326Z,7168
2017-04-20T11:39:06.028Z,7160
2017-04-20T11:40:06.359Z,7112
2017-04-20T11:41:05.970Z,7076
2017-04-20T11:42:06.225Z,7032
2017-04-20T11:43:06.265Z,6952
2017-04-20T11:44:06.186Z,6864
2017-04-20T11:45:06.148Z,6796
2017-04-20T11:46:06.214Z,6760
2017-04-20T11:47:06.101Z,6860
2017-04-20T11:48:06.091Z,6956
2017-04-20T11:49:05.756Z,7048
2017-04-20T11:50:06.048Z,7056
2017-04-20T11:51:05.712Z,7000
2017-04-20T11:52:05.951Z,6968
2017-04-20T11:53:05.692Z,6868
2017-04-20T11:54:05.665Z,6788
2017-04-20T11:55:05.955Z,6736
2017-04-20T11:56:07.222Z,6756
2017-04-20T11:57:05.597Z,6660
2017-04-20T11:58:05.892Z,6692
2017-04-20T11:59:05.900Z,6616
2017-04-20T12:00:05.828Z,6584
2017-04-20T12:01:05.828Z,6552
2017-04-20T12:02:05.790Z,6540
2017-04-20T12:03:05.474Z,6592
2017-04-20T12:04:05.761Z,6432
2017-04-20T12:05:05.437Z,6520
2017-04-20T12:06:05.719Z,6484
2017-04-20T12:07:05.698Z,6412
2017-04-20T12:08:05.711Z,6356
2017-04-20T12:09:05.712Z,6280
2017-04-20T12:10:07.329Z,6212
2017-04-20T12:11:05.639Z,6216
2017-04-20T12:12:05.564Z,6176
2017-04-20T12:13:05.546Z,6180
2017-04-20T12:14:05.224Z,6204
2017-04-20T12:15:05.509Z,6140
2017-04-20T12:16:05.471Z,6180
2017-04-20T12:17:05.153Z,6080
2017-04-20T12:18:05.434Z,6056
2017-04-20T12:19:05.407Z,6016
2017-04-20T12:20:05.113Z,5960
2017-04-20T12:21:05.376Z,5912
2017-04-20T12:22:05.627Z,5916
2017-04-20T12:23:05.478Z,5916
2017-04-20T12:24:05.300Z,5908
2017-04-20T12:25:04.977Z,5876
2017-04-20T12:26:05.253Z,5824
2017-04-20T12:27:05.239Z,5796
2017-04-20T12:28:05.227Z,5716
2017-04-20T12:29:05.191Z,5748
2017-04-20T12:30:06.191Z,5732
2017-04-20T12:31:05.167Z,5736
2017-04-20T12:32:05.141Z,5720
2017-04-20T12:33:05.105Z,5700
2017-04-20T12:34:05.130Z,5672
2017-04-20T12:35:04.774Z,5648
2017-04-20T12:36:05.043Z,5584
2017-04-20T12:37:05.070Z,5552
2017-04-20T12:38:05.046Z,5524
2017-04-20T12:39:04.977Z,5548
2017-04-20T12:40:04.961Z,5580
2017-04-20T12:41:04.632Z,5580
2017-04-20T12:42:04.918Z,5564
2017-04-20T12:43:04.592Z,5528
2017-04-20T12:44:05.819Z,5484
2017-04-20T12:45:04.858Z,5472
2017-04-20T12:46:04.827Z,5440
2017-04-20T12:47:04.526Z,5432
2017-04-20T12:48:04.784Z,5392
2017-04-20T12:49:04.761Z,5412
2017-04-20T12:50:04.740Z,5220
2017-04-20T12:51:04.719Z,5272
2017-04-20T12:52:04.694Z,5288
2017-04-20T12:53:04.670Z,5280
2017-04-20T12:54:04.739Z,5260
2017-04-20T12:55:04.834Z,5244
2017-04-20T12:56:04.702Z,5248
2017-04-20T12:57:04.359Z,5240
2017-04-20T12:58:04.425Z,5244
2017-04-20T12:59:04.404Z,5244
2017-04-20T13:00:04.525Z,5220
2017-04-20T13:01:04.211Z,5192
2017-04-20T13:02:04.473Z,5148
2017-04-20T13:03:04.446Z,5080
2017-04-20T13:04:04.147Z,5020
2017-04-20T13:05:04.419Z,4968
2017-04-20T13:06:04.161Z,4948
2017-04-20T13:07:04.428Z,4932
2017-04-20T13:08:04.265Z,4932
2017-04-20T13:09:04.462Z,4932
2017-04-20T13:10:04.107Z,4920
2017-04-20T13:11:03.744Z,4936
2017-04-20T13:12:04.269Z,4952
2017-04-20T13:13:03.663Z,4924
2017-04-20T13:14:04.264Z,4912
2017-04-20T13:15:04.376Z,4884
2017-04-20T13:16:04.170Z,4884
2017-04-20T13:17:04.163Z,4860
2017-04-20T13:18:03.825Z,4808
2017-04-20T13:19:04.124Z,4824
2017-04-20T13:20:04.095Z,4804
2017-04-20T13:21:04.067Z,4784
2017-04-20T13:22:04.041Z,4776
2017-04-20T13:23:04.014Z,4708
2017-04-20T13:24:03.989Z,4620
2017-04-20T13:25:03.959Z,4636
2017-04-20T13:26:03.648Z,4620
2017-04-20T13:27:03.983Z,4588
2017-04-20T13:28:04.161Z,4572
2017-04-20T13:29:03.585Z,4536
2017-04-20T13:30:03.864Z,4512
2017-04-20T13:31:03.839Z,4484
2017-04-20T13:32:03.524Z,4468
2017-04-20T13:33:03.882Z,4448
2017-04-20T13:34:03.771Z,4412